createdAt,value
2023-02-04T00:01:55.087Z,3.90
2023-02-04T00:04:23.906Z,3.50
2023-02-04T00:12:22.364Z,3.63
2023-02-04T00:17:33.697Z,2.63
2023-02-04T00:20:01.695Z,3.22
2023-02-04T00:22:29.817Z,2.90
2023-02-04T00:24:57.677Z,3.70
2023-02-04T00:27:25.595Z,3.08
2023-02-04T00:29:53.697Z,2.75
2023-02-04T00:32:21.563Z,3.08
2023-02-04T00:34:49.461Z,3.17
2023-02-04T00:37:17.764Z,3.22
2023-02-04T00:39:45.670Z,2.85
2023-02-04T00:42:13.634Z,3.50
2023-02-04T00:44:41.741Z,3.33
2023-02-04T00:47:09.656Z,3.40
2023-02-04T00:49:37.603Z,3.60
2023-02-04T00:52:05.767Z,3.42
2023-02-04T00:54:33.842Z,2.40
2023-02-04T00:57:02.690Z,2.95
2023-02-04T00:59:30.632Z,2.47
2023-02-04T01:02:01.129Z,3.83
2023-02-04T01:04:30.298Z,3.55
2023-02-04T01:06:58.471Z,2.87
2023-02-04T01:09:26.437Z,3.28
2023-02-04T01:11:54.314Z,3.30
2023-02-04T01:14:22.351Z,3.33
2023-02-04T01:16:50.394Z,2.95
2023-02-04T01:19:18.698Z,3.58
2023-02-04T01:21:46.700Z,2.92
2023-02-04T01:24:15.095Z,3.50
2023-02-04T01:27:01.656Z,3.58
2023-02-04T01:29:29.652Z,2.53
2023-02-04T01:31:57.603Z,2.92
2023-02-04T01:34:28.213Z,2.97
2023-02-04T01:36:56.089Z,3.70
2023-02-04T01:39:24.055Z,3.80
2023-02-04T01:41:52.160Z,2.97
2023-02-04T01:44:20.351Z,3.20
2023-02-04T01:46:48.622Z,3.55
2023-02-04T01:49:18.426Z,4.30
2023-02-04T01:51:46.907Z,3.72
2023-02-04T01:54:15.451Z,3.13
2023-02-04T01:56:46.886Z,3.03
2023-02-04T01:59:16.978Z,2.85
2023-02-04T02:01:50.743Z,3.67
2023-02-04T02:04:30.729Z,3.20
2023-02-04T02:07:03.774Z,2.90
2023-02-04T02:09:33.381Z,3.28
2023-02-04T02:12:03.102Z,3.33
2023-02-04T02:14:31.448Z,3.40
2023-02-04T02:16:59.424Z,3.13
2023-02-04T02:19:33.569Z,3.20
2023-02-04T02:22:37.410Z,2.88
2023-02-04T02:25:13.330Z,3.15
2023-02-04T02:27:41.776Z,3.55
2023-02-04T02:30:12.316Z,3.05
2023-02-04T02:32:40.697Z,3.53
2023-02-04T02:35:09.017Z,3.17
2023-02-04T02:37:36.966Z,4.10
2023-02-04T02:40:05.712Z,3.08
2023-02-04T02:42:34.108Z,3.72
2023-02-04T02:45:07.212Z,2.88
2023-02-04T02:47:35.333Z,3.70
2023-02-04T02:50:04.120Z,3.30
2023-02-04T02:52:32.064Z,3.40
2023-02-04T02:55:00.236Z,3.40
2023-02-04T02:57:28.425Z,3.30
2023-02-04T02:59:56.315Z,3.72
2023-02-04T03:02:24.609Z,3.00
2023-02-04T03:05:00.837Z,3.03
2023-02-04T03:07:31.729Z,2.95
2023-02-04T03:09:59.778Z,3.60
2023-02-04T03:12:27.826Z,3.53
2023-02-04T03:14:56.792Z,2.90
2023-02-04T03:17:24.736Z,3.08
2023-02-04T03:19:52.738Z,3.53
2023-02-04T03:22:20.907Z,3.13
2023-02-04T03:24:48.980Z,3.10
2023-02-04T03:27:17.648Z,3.17
2023-02-04T03:29:46.661Z,3.47
2023-02-04T03:32:14.626Z,2.97
2023-02-04T03:34:42.570Z,3.13
2023-02-04T03:37:10.630Z,3.05
2023-02-04T03:39:38.621Z,3.30
2023-02-04T03:42:06.533Z,4.05
2023-02-04T03:44:34.413Z,2.88
2023-02-04T03:47:02.601Z,3.15
2023-02-04T03:49:32.339Z,2.88
2023-02-04T03:52:00.273Z,3.63
2023-02-04T03:54:28.196Z,3.25
2023-02-04T03:56:56.178Z,3.60
2023-02-04T03:59:24.362Z,2.90
2023-02-04T04:01:52.702Z,3.20
2023-02-04T04:04:20.798Z,3.30
2023-02-04T04:06:48.775Z,3.05
2023-02-04T04:09:17.069Z,3.67
2023-02-04T04:11:45.031Z,3.88
2023-02-04T04:14:12.953Z,3.58
2023-02-04T04:16:40.979Z,3.53
2023-02-04T04:19:08.935Z,3.63
2023-02-04T04:21:36.759Z,2.90
2023-02-04T04:24:04.879Z,4.22
2023-02-04T04:26:32.766Z,3.20
2023-02-04T04:29:00.646Z,3.85
2023-02-04T04:31:28.760Z,3.70
2023-02-04T04:33:56.704Z,3.22
2023-02-04T04:36:24.760Z,4.40
2023-02-04T04:38:52.834Z,3.80
2023-02-04T04:41:20.853Z,3.97
2023-02-04T04:43:48.712Z,3.35
2023-02-04T04:46:16.819Z,3.60
2023-02-04T04:48:44.785Z,3.25
2023-02-04T04:51:12.848Z,3.60
2023-02-04T04:53:40.824Z,2.88
2023-02-04T04:56:08.807Z,4.15
2023-02-04T04:58:36.720Z,3.38
2023-02-04T05:01:04.700Z,3.13
2023-02-04T05:03:32.806Z,2.78
2023-02-04T05:06:00.788Z,4.50
2023-02-04T05:08:33.015Z,3.70
2023-02-04T05:11:00.890Z,3.28
2023-02-04T05:13:28.967Z,3.33
2023-02-04T05:15:56.895Z,3.10
2023-02-04T05:18:24.870Z,3.20
2023-02-04T05:20:52.759Z,3.13
2023-02-04T05:23:20.661Z,3.88
2023-02-04T05:25:48.603Z,3.63
2023-02-04T05:28:16.731Z,3.70
2023-02-04T05:30:44.816Z,4.32
2023-02-04T05:33:12.872Z,3.67
2023-02-04T05:35:41.135Z,3.17
2023-02-04T05:38:09.233Z,4.10
2023-02-04T05:40:37.401Z,3.78
2023-02-04T05:43:05.453Z,3.30
2023-02-04T05:45:33.521Z,3.28
2023-02-04T05:48:01.681Z,3.47
2023-02-04T05:50:29.779Z,2.78
2023-02-04T05:53:10.123Z,3.20
2023-02-04T05:55:38.221Z,3.63
2023-02-04T05:58:06.372Z,3.40
2023-02-04T06:00:34.529Z,3.10
2023-02-04T06:03:03.179Z,3.00
2023-02-04T06:05:31.256Z,3.05
2023-02-04T06:07:59.548Z,3.53
2023-02-04T06:10:27.736Z,3.95
2023-02-04T06:12:55.800Z,3.55
2023-02-04T06:15:23.875Z,2.88
2023-02-04T06:17:53.489Z,2.80
2023-02-04T06:20:21.563Z,3.10
2023-02-04T06:22:51.781Z,4.22
2023-02-04T06:25:22.684Z,2.78
2023-02-04T06:27:51.458Z,3.22
2023-02-04T06:30:20.013Z,3.38
2023-02-04T06:32:48.001Z,3.53
2023-02-04T06:35:16.721Z,3.30
2023-02-04T06:37:45.233Z,3.90
2023-02-04T06:40:13.478Z,3.88
2023-02-04T06:42:41.495Z,3.60
2023-02-04T06:45:09.634Z,3.63
2023-02-04T06:47:37.521Z,3.80
2023-02-04T06:50:05.588Z,3.38
2023-02-04T06:52:33.444Z,3.58
2023-02-04T06:55:03.662Z,3.22
2023-02-04T06:57:31.956Z,3.45
2023-02-04T07:00:00.301Z,3.13
2023-02-04T07:02:28.601Z,3.70
2023-02-04T07:04:56.514Z,3.85
2023-02-04T07:07:24.479Z,3.15
2023-02-04T07:09:52.427Z,3.38
2023-02-04T07:12:20.361Z,3.72
2023-02-04T07:14:48.525Z,3.20
2023-02-04T07:17:16.495Z,3.25
2023-02-04T07:19:44.384Z,4.82
2023-02-04T07:22:12.802Z,6.57
2023-02-04T07:24:40.885Z,4.97
2023-02-04T07:27:08.754Z,4.78
2023-02-04T07:29:36.613Z,4.45
2023-02-04T07:32:04.778Z,3.40
2023-02-04T07:34:32.805Z,3.45
2023-02-04T07:37:00.761Z,3.58
2023-02-04T07:39:28.634Z,4.43
2023-02-04T07:41:56.481Z,3.47
2023-02-04T07:44:32.467Z,3.92
2023-02-04T07:47:00.760Z,3.75
2023-02-04T07:49:28.992Z,3.85
2023-02-04T07:51:57.881Z,3.83
2023-02-04T07:54:25.756Z,4.47
2023-02-04T07:56:53.613Z,4.38
2023-02-04T07:59:21.601Z,4.30
2023-02-04T08:01:49.795Z,4.03
2023-02-04T08:04:18.026Z,4.35
2023-02-04T08:06:46.060Z,2.85
2023-02-04T08:09:14.113Z,3.38
2023-02-04T08:11:41.950Z,3.42
2023-02-04T08:14:09.829Z,4.32
2023-02-04T08:16:37.812Z,3.88
2023-02-04T08:19:05.740Z,3.53
2023-02-04T08:21:33.663Z,3.78
2023-02-04T08:24:01.595Z,3.50
2023-02-04T08:26:35.170Z,3.78
2023-02-04T08:29:03.660Z,3.90
2023-02-04T08:31:34.672Z,4.53
2023-02-04T08:34:03.083Z,4.45
2023-02-04T08:36:32.081Z,4.20
2023-02-04T08:39:00.105Z,4.60
2023-02-04T08:41:28.020Z,4.38
2023-02-04T08:43:57.166Z,4.55
2023-02-04T08:46:25.091Z,4.85
2023-02-04T08:48:53.096Z,3.78
2023-02-04T08:51:21.160Z,3.67
2023-02-04T08:53:49.260Z,4.53
2023-02-04T08:56:19.186Z,4.75
2023-02-04T08:58:52.838Z,4.80
2023-02-04T09:01:20.875Z,3.40
2023-02-04T09:03:48.877Z,4.47
2023-02-04T09:06:16.854Z,4.63
2023-02-04T09:08:44.758Z,4.10
2023-02-04T09:11:12.712Z,4.88
2023-02-04T09:13:40.648Z,4.22
2023-02-04T09:16:08.679Z,4.03
2023-02-04T09:18:36.772Z,4.05
2023-02-04T09:21:04.960Z,3.88
2023-02-04T09:23:33.176Z,4.57
2023-02-04T09:26:01.629Z,4.88
2023-02-04T09:28:30.051Z,4.55
2023-02-04T09:30:58.030Z,3.70
2023-02-04T09:33:26.199Z,3.70
2023-02-04T09:35:54.130Z,4.38
2023-02-04T09:38:22.408Z,4.45
2023-02-04T09:41:07.520Z,4.32
2023-02-04T09:43:41.185Z,3.20
2023-02-04T09:46:21.754Z,3.88
2023-02-04T09:48:51.634Z,4.38
2023-02-04T09:51:23.700Z,4.18
2023-02-04T09:53:54.428Z,3.88
2023-02-04T09:56:26.317Z,5.65
2023-02-04T09:58:54.373Z,6.15
2023-02-04T10:01:22.590Z,4.43
2023-02-04T10:03:51.601Z,4.40
2023-02-04T10:06:21.712Z,4.15
2023-02-04T10:08:52.127Z,4.20
2023-02-04T10:11:22.321Z,4.45
2023-02-04T10:13:54.385Z,4.03
2023-02-04T10:16:30.074Z,4.20
2023-02-04T10:19:03.891Z,4.97
2023-02-04T10:21:35.841Z,4.47
2023-02-04T10:24:07.783Z,4.63
2023-02-04T10:26:35.777Z,4.47
2023-02-04T10:29:09.553Z,4.18
2023-02-04T10:31:40.168Z,3.87
2023-02-04T10:34:33.847Z,4.43
2023-02-04T10:37:17.796Z,4.65
2023-02-04T10:39:45.801Z,4.28
2023-02-04T10:42:28.408Z,3.95
2023-02-04T10:44:56.796Z,4.10
2023-02-04T10:47:27.285Z,4.55
2023-02-04T10:50:07.701Z,3.85
2023-02-04T10:52:48.811Z,3.90
2023-02-04T10:55:19.900Z,4.50
2023-02-04T10:57:49.840Z,3.90
2023-02-04T11:00:26.105Z,4.40
2023-02-04T11:02:59.205Z,5.78
2023-02-04T11:05:32.466Z,5.60
2023-02-04T11:08:01.385Z,4.40
2023-02-04T11:10:32.697Z,4.60
2023-02-04T11:13:11.657Z,4.50
2023-02-04T11:15:55.132Z,4.03
2023-02-04T11:18:23.447Z,4.22
2023-02-04T11:20:54.993Z,4.22
2023-02-04T11:23:32.560Z,4.07
2023-02-04T11:26:07.418Z,4.72
2023-02-04T11:28:51.991Z,4.20
2023-02-04T11:31:23.332Z,5.07
2023-02-04T11:34:07.782Z,4.40
2023-02-04T11:36:50.037Z,3.78
2023-02-04T11:39:19.394Z,3.78
2023-02-04T11:41:47.791Z,4.25
2023-02-04T11:44:17.825Z,3.80
2023-02-04T11:46:58.713Z,4.22
2023-02-04T11:49:30.590Z,3.53
2023-02-04T11:52:08.864Z,3.65
2023-02-04T11:54:37.608Z,3.00
2023-02-04T11:57:06.628Z,3.05
2023-02-04T11:59:34.752Z,4.43
2023-02-04T12:02:24.136Z,2.90
2023-02-04T12:04:58.677Z,3.40
2023-02-04T12:07:30.773Z,3.20
2023-02-04T12:10:10.187Z,3.72
2023-02-04T12:12:44.777Z,3.55
2023-02-04T12:15:26.568Z,3.45
2023-02-04T12:18:08.952Z,3.25
2023-02-04T12:20:37.869Z,2.83
2023-02-04T12:23:06.471Z,3.33
2023-02-04T12:25:34.913Z,3.17
2023-02-04T12:28:03.078Z,3.45
2023-02-04T12:30:31.205Z,3.05
2023-02-04T12:32:59.454Z,3.15
2023-02-04T12:35:27.623Z,2.90
2023-02-04T12:37:55.788Z,2.92
2023-02-04T12:40:23.868Z,2.65
2023-02-04T12:42:52.005Z,2.88
2023-02-04T12:45:20.457Z,5.20
2023-02-04T12:47:48.449Z,5.15
2023-02-04T12:50:24.976Z,2.63
2023-02-04T12:52:58.861Z,2.70
2023-02-04T12:55:29.317Z,2.70
2023-02-04T12:57:57.390Z,3.10
2023-02-04T13:00:27.411Z,3.33
2023-02-04T13:02:55.459Z,3.58
2023-02-04T13:05:23.521Z,3.08
2023-02-04T13:07:51.918Z,3.95
2023-02-04T13:10:21.803Z,2.10
2023-02-04T13:12:50.233Z,2.95
2023-02-04T13:15:18.275Z,2.70
2023-02-04T13:17:46.232Z,2.78
2023-02-04T13:20:19.344Z,2.67
2023-02-04T13:22:47.515Z,2.75
2023-02-04T13:25:15.713Z,2.65
2023-02-04T13:27:43.927Z,2.58
2023-02-04T13:30:15.962Z,2.35
2023-02-04T13:32:44.061Z,3.00
2023-02-04T13:35:12.013Z,2.13
2023-02-04T13:37:40.144Z,1.90
2023-02-04T13:40:09.515Z,2.00
2023-02-04T13:42:37.516Z,2.20
2023-02-04T13:45:07.707Z,2.65
2023-02-04T13:47:35.593Z,2.10
2023-02-04T13:50:03.754Z,3.03
2023-02-04T13:52:33.156Z,2.60
2023-02-04T13:55:01.568Z,2.08
2023-02-04T13:57:30.905Z,2.50
2023-02-04T13:59:58.827Z,3.13
2023-02-04T14:02:26.829Z,2.33
2023-02-04T14:04:54.744Z,3.42
2023-02-04T14:07:22.689Z,3.25
2023-02-04T14:09:50.810Z,4.38
2023-02-04T14:12:18.747Z,3.97
2023-02-04T14:14:47.599Z,3.50
2023-02-04T14:17:16.623Z,3.05
2023-02-04T14:19:44.553Z,2.63
2023-02-04T14:22:13.266Z,3.63
2023-02-04T14:24:42.704Z,2.83
2023-02-04T14:27:11.114Z,3.65
2023-02-04T14:29:39.030Z,3.40
2023-02-04T14:32:07.088Z,2.10
2023-02-04T14:34:35.278Z,2.83
2023-02-04T14:37:03.142Z,6.60
2023-02-04T14:39:30.969Z,3.58
2023-02-04T14:41:58.924Z,2.78
2023-02-04T14:44:26.797Z,2.70
2023-02-04T14:46:54.747Z,2.38
2023-02-04T14:49:22.619Z,2.80
2023-02-04T14:51:50.546Z,2.70
2023-02-04T14:54:18.337Z,2.92
2023-02-04T14:56:47.778Z,2.88
2023-02-04T14:59:15.750Z,3.60
2023-02-04T15:01:46.310Z,2.85
2023-02-04T15:04:14.737Z,2.70
2023-02-04T15:06:42.686Z,3.55
2023-02-04T15:09:10.567Z,3.40
2023-02-04T15:11:38.679Z,3.53
2023-02-04T15:14:06.500Z,3.53
2023-02-04T15:16:35.406Z,3.15
2023-02-04T15:19:03.477Z,3.03
2023-02-04T15:21:31.601Z,3.33
2023-02-04T15:23:59.454Z,2.90
2023-02-04T15:26:27.431Z,3.63
2023-02-04T15:28:58.054Z,3.28
2023-02-04T15:31:27.316Z,3.35
2023-02-04T15:33:55.281Z,3.88
2023-02-04T15:36:23.388Z,4.57
2023-02-04T15:38:51.402Z,3.67
2023-02-04T15:41:19.307Z,4.65
2023-02-04T15:43:48.863Z,4.38
2023-02-04T15:46:16.938Z,4.78
2023-02-04T15:48:44.993Z,3.83
2023-02-04T15:51:12.847Z,2.97
2023-02-04T15:53:40.989Z,4.10
2023-02-04T15:56:09.060Z,4.28
2023-02-04T15:58:37.962Z,4.05
2023-02-04T16:01:06.433Z,5.00
2023-02-04T16:03:34.600Z,4.50
2023-02-04T16:06:02.761Z,4.70
2023-02-04T16:08:30.777Z,4.90
2023-02-04T16:10:58.937Z,4.70
2023-02-04T16:13:29.939Z,5.45
2023-02-04T16:15:58.048Z,5.25
2023-02-04T16:18:26.442Z,4.72
2023-02-04T16:20:54.619Z,5.10
2023-02-04T16:23:22.598Z,4.78
2023-02-04T16:25:50.931Z,5.03
2023-02-04T16:28:19.341Z,5.13
2023-02-04T16:30:47.592Z,4.63
2023-02-04T16:33:25.631Z,5.93
2023-02-04T16:36:13.703Z,7.18
2023-02-04T16:38:45.228Z,5.63
2023-02-04T16:41:14.519Z,6.47
2023-02-04T16:43:42.534Z,6.65
2023-02-04T16:46:12.190Z,6.90
2023-02-04T16:48:40.316Z,6.80
2023-02-04T16:51:09.726Z,7.65
2023-02-04T16:53:39.108Z,7.50
2023-02-04T16:56:07.805Z,6.18
2023-02-04T16:58:35.817Z,5.85
2023-02-04T17:01:15.833Z,6.68
2023-02-04T17:03:44.970Z,5.13
2023-02-04T17:06:16.733Z,7.13
2023-02-04T17:08:44.603Z,7.50
2023-02-04T17:11:31.850Z,7.22
2023-02-04T17:14:06.578Z,7.00
2023-02-04T17:16:35.354Z,7.10
2023-02-04T17:19:04.309Z,5.78
2023-02-04T17:21:32.487Z,5.85
2023-02-04T17:24:04.825Z,6.20
2023-02-04T17:26:37.577Z,8.65
2023-02-04T17:29:15.448Z,10.60
2023-02-04T17:31:43.579Z,7.45
2023-02-04T17:34:11.995Z,6.05
2023-02-04T17:36:44.754Z,6.97
2023-02-04T17:39:12.759Z,7.32
2023-02-04T17:41:40.731Z,7.85
2023-02-04T17:44:08.936Z,6.82
2023-02-04T17:46:37.011Z,6.35
2023-02-04T17:49:04.954Z,6.57
2023-02-04T17:51:33.105Z,11.77
2023-02-04T17:54:01.029Z,10.55
2023-02-04T17:56:29.165Z,12.15
2023-02-04T17:58:57.221Z,9.82
2023-02-04T18:01:25.994Z,9.70
2023-02-04T18:03:54.213Z,8.35
2023-02-04T18:06:26.997Z,7.57
2023-02-04T18:09:02.001Z,5.82
2023-02-04T18:11:36.506Z,6.05
2023-02-04T18:14:27.315Z,6.32
2023-02-04T18:16:57.577Z,6.53
2023-02-04T18:19:37.141Z,7.13
2023-02-04T18:22:14.606Z,5.78
2023-02-04T18:24:45.501Z,6.30
2023-02-04T18:27:24.365Z,8.82
2023-02-04T18:29:56.524Z,8.50
2023-02-04T18:32:31.152Z,7.18
2023-02-04T18:34:59.463Z,7.97
2023-02-04T18:37:37.578Z,11.73
2023-02-04T18:40:14.275Z,12.15
2023-02-04T18:42:44.313Z,10.35
2023-02-04T18:45:33.200Z,9.02
2023-02-04T18:48:20.804Z,8.63
2023-02-04T18:50:54.271Z,7.32
2023-02-04T18:53:29.234Z,7.07
2023-02-04T18:55:59.340Z,5.95
2023-02-04T18:58:40.629Z,6.50
2023-02-04T19:01:18.100Z,7.25
2023-02-04T19:03:53.661Z,6.35
2023-02-04T19:06:31.360Z,6.32
2023-02-04T19:09:24.404Z,7.20
2023-02-04T19:11:57.899Z,9.00
2023-02-04T19:14:41.384Z,10.60
2023-02-04T19:17:28.395Z,7.40
2023-02-04T19:19:57.564Z,7.38
2023-02-04T19:22:37.545Z,8.00
2023-02-04T19:25:30.810Z,9.15
2023-02-04T19:28:01.366Z,7.28
2023-02-04T19:30:30.869Z,6.72
2023-02-04T19:33:10.292Z,6.53
2023-02-04T19:35:46.909Z,5.82
2023-02-04T19:38:36.275Z,5.50
2023-02-04T19:41:22.164Z,5.80
2023-02-04T19:43:50.155Z,5.72
2023-02-04T19:46:23.961Z,7.07
2023-02-04T19:48:52.422Z,6.35
2023-02-04T19:51:24.336Z,5.68
2023-02-04T19:54:01.606Z,5.70
2023-02-04T19:56:39.507Z,6.50
2023-02-04T19:59:27.649Z,5.90
2023-02-04T20:02:08.110Z,7.05
2023-02-04T20:04:48.359Z,7.40
2023-02-04T20:07:24.456Z,7.38
2023-02-04T20:10:05.727Z,8.05
2023-02-04T20:12:34.231Z,8.10
2023-02-04T20:15:32.975Z,7.68
2023-02-04T20:18:10.288Z,8.68
2023-02-04T20:20:40.460Z,8.23
2023-02-04T20:23:32.073Z,8.48
2023-02-04T20:26:01.402Z,7.78
2023-02-04T20:28:32.487Z,8.05
2023-02-04T20:31:01.825Z,8.25
2023-02-04T20:33:47.519Z,7.65
2023-02-04T20:36:25.115Z,9.25
2023-02-04T20:39:29.073Z,8.68
2023-02-04T20:42:23.896Z,8.25
2023-02-04T20:44:52.248Z,8.70
2023-02-04T20:47:24.297Z,9.23
2023-02-04T20:49:59.333Z,11.52
2023-02-04T20:55:33.298Z,14.75
2023-02-04T20:58:17.420Z,14.63
2023-02-04T21:00:48.823Z,14.32
2023-02-04T21:03:21.654Z,12.05
2023-02-04T21:05:51.249Z,12.75
2023-02-04T21:08:27.589Z,12.25
2023-02-04T21:10:56.513Z,12.30
2023-02-04T21:13:25.135Z,13.40
2023-02-04T21:15:53.387Z,13.85
2023-02-04T21:18:21.556Z,13.27
2023-02-04T21:20:49.491Z,14.57
2023-02-04T21:23:17.878Z,13.68
2023-02-04T21:25:46.102Z,13.30
2023-02-04T21:28:14.561Z,12.68
2023-02-04T21:30:42.699Z,12.00
2023-02-04T21:33:11.718Z,11.35
2023-02-04T21:35:39.993Z,12.13
2023-02-04T21:38:08.492Z,11.77
2023-02-04T21:40:37.866Z,10.77
2023-02-04T21:43:08.202Z,11.98
2023-02-04T21:45:37.904Z,11.65
2023-02-04T21:48:08.039Z,11.93
2023-02-04T21:50:38.410Z,11.68
2023-02-04T21:53:07.522Z,10.57
2023-02-04T21:55:36.094Z,12.18
2023-02-04T21:58:05.384Z,9.70
2023-02-04T22:00:33.639Z,10.82
2023-02-04T22:03:01.859Z,9.93
2023-02-04T22:05:29.819Z,10.20
2023-02-04T22:07:59.727Z,10.38
2023-02-04T22:10:28.034Z,11.00
2023-02-04T22:12:56.060Z,11.32
2023-02-04T22:15:24.350Z,13.07
2023-02-04T22:17:53.828Z,12.20
2023-02-04T22:20:24.010Z,12.45
2023-02-04T22:22:52.292Z,12.10
2023-02-04T22:25:21.636Z,12.60
2023-02-04T22:27:52.500Z,12.77
2023-02-04T22:30:20.581Z,12.40
2023-02-04T22:32:48.569Z,14.07
2023-02-04T22:35:17.698Z,12.80
2023-02-04T22:37:45.556Z,13.20
2023-02-04T22:40:14.198Z,11.93
2023-02-04T22:42:42.246Z,11.45
2023-02-04T22:45:10.501Z,10.63
2023-02-04T22:47:39.159Z,11.60
2023-02-04T22:50:07.450Z,11.23
2023-02-04T22:52:35.332Z,12.07
2023-02-04T22:55:03.470Z,11.70
2023-02-04T22:57:31.473Z,10.88
2023-02-04T22:59:59.440Z,12.40
2023-02-04T23:02:27.830Z,13.07
2023-02-04T23:04:55.989Z,12.27
2023-02-04T23:07:24.573Z,12.18
2023-02-04T23:09:52.629Z,12.65
2023-02-04T23:12:20.542Z,12.70
2023-02-04T23:14:49.269Z,12.32
2023-02-04T23:17:18.486Z,11.88
2023-02-04T23:19:46.442Z,12.60
2023-02-04T23:22:15.714Z,12.73
2023-02-04T23:24:44.181Z,12.60
2023-02-04T23:27:12.446Z,13.15
2023-02-04T23:29:40.766Z,12.82
2023-02-04T23:32:09.345Z,12.75
2023-02-04T23:34:37.683Z,13.98
2023-02-04T23:37:05.546Z,14.55
2023-02-04T23:39:33.366Z,13.43
2023-02-04T23:42:01.217Z,12.15
2023-02-04T23:44:29.097Z,13.15
2023-02-04T23:46:57.149Z,11.30
2023-02-04T23:49:25.136Z,10.60
2023-02-04T23:51:53.233Z,10.95
2023-02-04T23:54:21.206Z,10.27
2023-02-04T23:56:49.351Z,8.90
2023-02-04T23:59:17.499Z,8.88
